sensor_id;sensor_type;location;lat;lon;timestamp;P1;durP1;ratioP1;P2;durP2;ratioP2
71572;SDS011;59408;51.032;9.410;2022-09-09T00:02:11;4.80;;;1.80;;
71572;SDS011;59408;51.032;9.410;2022-09-09T00:04:45;5.90;;;1.60;;
71572;SDS011;59408;51.032;9.410;2022-09-09T00:07:25;4.60;;;1.40;;
71572;SDS011;59408;51.032;9.410;2022-09-09T00:10:05;5.55;;;1.33;;
71572;SDS011;59408;51.032;9.410;2022-09-09T00:12:43;6.40;;;1.70;;
71572;SDS011;59408;51.032;9.410;2022-09-09T00:15:18;4.70;;;1.37;;
71572;SDS011;59408;51.032;9.410;2022-09-09T00:17:49;4.35;;;1.40;;
71572;SDS011;59408;51.032;9.410;2022-09-09T00:20:20;6.53;;;1.70;;
71572;SDS011;59408;51.032;9.410;2022-09-09T00:22:51;6.60;;;1.73;;
71572;SDS011;59408;51.032;9.410;2022-09-09T00:25:24;4.53;;;1.40;;
71572;SDS011;59408;51.032;9.410;2022-09-09T00:27:57;7.20;;;1.70;;
71572;SDS011;59408;51.032;9.410;2022-09-09T00:30:25;5.87;;;1.57;;
71572;SDS011;59408;51.032;9.410;2022-09-09T00:32:58;5.57;;;1.40;;
71572;SDS011;59408;51.032;9.410;2022-09-09T00:35:27;4.68;;;1.63;;
71572;SDS011;59408;51.032;9.410;2022-09-09T00:37:58;7.00;;;1.50;;
71572;SDS011;59408;51.032;9.410;2022-09-09T00:40:30;5.03;;;1.40;;
71572;SDS011;59408;51.032;9.410;2022-09-09T00:43:03;5.77;;;1.70;;
71572;SDS011;59408;51.032;9.410;2022-09-09T00:45:50;4.93;;;1.70;;
71572;SDS011;59408;51.032;9.410;2022-09-09T00:48:28;6.70;;;1.63;;
71572;SDS011;59408;51.032;9.410;2022-09-09T00:51:02;5.65;;;1.60;;
71572;SDS011;59408;51.032;9.410;2022-09-09T00:53:38;4.32;;;1.75;;
71572;SDS011;59408;51.032;9.410;2022-09-09T00:56:11;5.50;;;1.55;;
71572;SDS011;59408;51.032;9.410;2022-09-09T00:58:40;6.13;;;1.30;;
71572;SDS011;59408;51.032;9.410;2022-09-09T01:01:09;5.73;;;1.23;;
71572;SDS011;59408;51.032;9.410;2022-09-09T01:03:39;5.15;;;1.45;;
71572;SDS011;59408;51.032;9.410;2022-09-09T01:06:14;5.25;;;1.50;;
71572;SDS011;59408;51.032;9.410;2022-09-09T01:11:46;5.35;;;1.58;;
71572;SDS011;59408;51.032;9.410;2022-09-09T01:14:22;6.00;;;1.20;;
71572;SDS011;59408;51.032;9.410;2022-09-09T01:17:05;5.00;;;1.40;;
71572;SDS011;59408;51.032;9.410;2022-09-09T01:19:44;3.33;;;1.20;;
71572;SDS011;59408;51.032;9.410;2022-09-09T01:22:23;5.20;;;1.30;;
71572;SDS011;59408;51.032;9.410;2022-09-09T01:25:08;5.60;;;1.42;;
71572;SDS011;59408;51.032;9.410;2022-09-09T01:27:55;4.47;;;1.33;;
71572;SDS011;59408;51.032;9.410;2022-09-09T01:30:23;4.70;;;1.30;;
71572;SDS011;59408;51.032;9.410;2022-09-09T01:32:53;4.63;;;1.30;;
71572;SDS011;59408;51.032;9.410;2022-09-09T01:35:26;5.28;;;1.27;;
71572;SDS011;59408;51.032;9.410;2022-09-09T01:37:58;4.40;;;1.10;;
71572;SDS011;59408;51.032;9.410;2022-09-09T01:40:25;5.05;;;1.30;;
71572;SDS011;59408;51.032;9.410;2022-09-09T01:42:52;6.28;;;1.38;;
71572;SDS011;59408;51.032;9.410;2022-09-09T01:45:21;4.40;;;1.37;;
71572;SDS011;59408;51.032;9.410;2022-09-09T01:47:48;5.87;;;1.47;;
71572;SDS011;59408;51.032;9.410;2022-09-09T01:50:16;6.43;;;1.30;;
71572;SDS011;59408;51.032;9.410;2022-09-09T01:52:43;6.15;;;1.58;;
71572;SDS011;59408;51.032;9.410;2022-09-09T01:55:12;3.72;;;1.25;;
71572;SDS011;59408;51.032;9.410;2022-09-09T01:57:41;7.40;;;1.48;;
71572;SDS011;59408;51.032;9.410;2022-09-09T02:00:14;3.03;;;0.73;;
71572;SDS011;59408;51.032;9.410;2022-09-09T02:02:45;4.27;;;1.27;;
71572;SDS011;59408;51.032;9.410;2022-09-09T02:05:24;5.53;;;1.10;;
71572;SDS011;59408;51.032;9.410;2022-09-09T02:07:58;5.00;;;1.20;;
71572;SDS011;59408;51.032;9.410;2022-09-09T02:10:30;4.07;;;1.10;;
71572;SDS011;59408;51.032;9.410;2022-09-09T02:13:00;5.20;;;1.30;;
71572;SDS011;59408;51.032;9.410;2022-09-09T02:15:32;5.27;;;1.00;;
71572;SDS011;59408;51.032;9.410;2022-09-09T02:18:04;5.00;;;1.10;;
71572;SDS011;59408;51.032;9.410;2022-09-09T02:20:34;5.60;;;1.17;;
71572;SDS011;59408;51.032;9.410;2022-09-09T02:23:04;4.47;;;1.20;;
71572;SDS011;59408;51.032;9.410;2022-09-09T02:25:32;4.38;;;1.20;;
71572;SDS011;59408;51.032;9.410;2022-09-09T02:28:03;5.15;;;1.20;;
71572;SDS011;59408;51.032;9.410;2022-09-09T02:30:32;4.67;;;1.23;;
71572;SDS011;59408;51.032;9.410;2022-09-09T02:33:01;3.90;;;1.10;;
71572;SDS011;59408;51.032;9.410;2022-09-09T02:35:32;4.72;;;1.00;;
71572;SDS011;59408;51.032;9.410;2022-09-09T02:38:01;6.88;;;1.13;;
71572;SDS011;59408;51.032;9.410;2022-09-09T02:40:32;4.00;;;1.08;;
71572;SDS011;59408;51.032;9.410;2022-09-09T02:42:59;4.70;;;1.10;;
71572;SDS011;59408;51.032;9.410;2022-09-09T02:45:27;4.60;;;1.20;;
71572;SDS011;59408;51.032;9.410;2022-09-09T02:48:02;4.43;;;1.00;;
71572;SDS011;59408;51.032;9.410;2022-09-09T02:50:38;4.85;;;1.45;;
71572;SDS011;59408;51.032;9.410;2022-09-09T02:53:13;4.70;;;1.20;;
71572;SDS011;59408;51.032;9.410;2022-09-09T02:55:45;5.10;;;1.50;;
71572;SDS011;59408;51.032;9.410;2022-09-09T02:58:14;4.13;;;1.17;;
71572;SDS011;59408;51.032;9.410;2022-09-09T03:00:44;5.20;;;1.17;;
71572;SDS011;59408;51.032;9.410;2022-09-09T03:03:12;5.47;;;1.20;;
71572;SDS011;59408;51.032;9.410;2022-09-09T03:05:40;4.45;;;1.15;;
71572;SDS011;59408;51.032;9.410;2022-09-09T03:08:09;4.18;;;1.40;;
71572;SDS011;59408;51.032;9.410;2022-09-09T03:10:36;4.50;;;1.20;;
71572;SDS011;59408;51.032;9.410;2022-09-09T03:13:02;4.87;;;1.33;;
71572;SDS011;59408;51.032;9.410;2022-09-09T03:15:29;5.40;;;1.40;;
71572;SDS011;59408;51.032;9.410;2022-09-09T03:17:56;3.97;;;1.08;;
71572;SDS011;59408;51.032;9.410;2022-09-09T03:20:22;6.20;;;1.40;;
71572;SDS011;59408;51.032;9.410;2022-09-09T03:22:50;5.15;;;1.30;;
71572;SDS011;59408;51.032;9.410;2022-09-09T03:25:17;5.28;;;1.42;;
71572;SDS011;59408;51.032;9.410;2022-09-09T03:27:44;4.93;;;1.50;;
71572;SDS011;59408;51.032;9.410;2022-09-09T03:30:10;5.70;;;1.30;;
71572;SDS011;59408;51.032;9.410;2022-09-09T03:32:37;5.50;;;1.40;;
71572;SDS011;59408;51.032;9.410;2022-09-09T03:35:04;4.30;;;1.40;;
71572;SDS011;59408;51.032;9.410;2022-09-09T03:37:30;4.20;;;1.30;;
71572;SDS011;59408;51.032;9.410;2022-09-09T03:39:58;5.30;;;1.35;;
71572;SDS011;59408;51.032;9.410;2022-09-09T03:42:25;5.87;;;1.43;;
71572;SDS011;59408;51.032;9.410;2022-09-09T03:44:52;7.33;;;1.80;;
71572;SDS011;59408;51.032;9.410;2022-09-09T03:47:19;5.85;;;1.60;;
71572;SDS011;59408;51.032;9.410;2022-09-09T03:49:47;7.45;;;1.60;;
71572;SDS011;59408;51.032;9.410;2022-09-09T03:52:14;5.18;;;1.38;;
71572;SDS011;59408;51.032;9.410;2022-09-09T03:54:44;5.43;;;1.60;;
71572;SDS011;59408;51.032;9.410;2022-09-09T03:57:12;4.13;;;1.20;;
71572;SDS011;59408;51.032;9.410;2022-09-09T03:59:38;4.07;;;1.30;;
71572;SDS011;59408;51.032;9.410;2022-09-09T04:02:05;6.35;;;1.10;;
71572;SDS011;59408;51.032;9.410;2022-09-09T04:04:32;4.18;;;1.50;;
71572;SDS011;59408;51.032;9.410;2022-09-09T04:06:58;4.90;;;1.50;;
71572;SDS011;59408;51.032;9.410;2022-09-09T04:09:25;5.45;;;1.40;;
71572;SDS011;59408;51.032;9.410;2022-09-09T04:11:51;5.17;;;1.30;;
71572;SDS011;59408;51.032;9.410;2022-09-09T04:14:20;5.60;;;1.47;;
71572;SDS011;59408;51.032;9.410;2022-09-09T04:16:47;5.65;;;1.52;;
71572;SDS011;59408;51.032;9.410;2022-09-09T04:19:13;6.82;;;1.67;;
71572;SDS011;59408;51.032;9.410;2022-09-09T04:21:40;4.57;;;1.50;;
71572;SDS011;59408;51.032;9.410;2022-09-09T04:24:07;5.22;;;1.40;;
71572;SDS011;59408;51.032;9.410;2022-09-09T04:26:34;4.57;;;1.37;;
71572;SDS011;59408;51.032;9.410;2022-09-09T04:29:02;4.25;;;1.23;;
71572;SDS011;59408;51.032;9.410;2022-09-09T04:31:30;6.00;;;1.50;;
71572;SDS011;59408;51.032;9.410;2022-09-09T04:33:57;5.78;;;1.70;;
71572;SDS011;59408;51.032;9.410;2022-09-09T04:36:23;4.13;;;1.40;;
71572;SDS011;59408;51.032;9.410;2022-09-09T04:38:50;4.07;;;1.13;;
71572;SDS011;59408;51.032;9.410;2022-09-09T04:41:16;4.67;;;1.30;;
71572;SDS011;59408;51.032;9.410;2022-09-09T04:43:43;6.53;;;1.50;;
71572;SDS011;59408;51.032;9.410;2022-09-09T04:46:10;5.75;;;1.60;;
71572;SDS011;59408;51.032;9.410;2022-09-09T04:48:38;7.20;;;1.45;;
71572;SDS011;59408;51.032;9.410;2022-09-09T04:51:04;4.43;;;1.40;;
71572;SDS011;59408;51.032;9.410;2022-09-09T04:53:32;5.63;;;1.30;;
71572;SDS011;59408;51.032;9.410;2022-09-09T04:56:02;6.07;;;1.50;;
71572;SDS011;59408;51.032;9.410;2022-09-09T04:58:30;6.15;;;1.80;;
71572;SDS011;59408;51.032;9.410;2022-09-09T05:01:02;5.95;;;1.40;;
71572;SDS011;59408;51.032;9.410;2022-09-09T05:03:30;4.50;;;1.50;;
71572;SDS011;59408;51.032;9.410;2022-09-09T05:06:03;4.47;;;1.45;;
71572;SDS011;59408;51.032;9.410;2022-09-09T05:08:30;3.67;;;1.30;;
71572;SDS011;59408;51.032;9.410;2022-09-09T05:10:57;7.10;;;1.92;;
71572;SDS011;59408;51.032;9.410;2022-09-09T05:13:23;7.18;;;1.85;;
71572;SDS011;59408;51.032;9.410;2022-09-09T05:15:51;4.53;;;1.27;;
71572;SDS011;59408;51.032;9.410;2022-09-09T05:18:18;5.45;;;1.73;;
71572;SDS011;59408;51.032;9.410;2022-09-09T05:20:44;5.40;;;1.27;;
71572;SDS011;59408;51.032;9.410;2022-09-09T05:23:12;5.87;;;1.60;;
71572;SDS011;59408;51.032;9.410;2022-09-09T05:25:39;5.75;;;1.30;;
71572;SDS011;59408;51.032;9.410;2022-09-09T05:28:06;6.60;;;1.60;;
71572;SDS011;59408;51.032;9.410;2022-09-09T05:30:32;6.88;;;1.88;;
71572;SDS011;59408;51.032;9.410;2022-09-09T05:32:59;5.72;;;1.70;;
71572;SDS011;59408;51.032;9.410;2022-09-09T05:35:26;7.20;;;1.37;;
71572;SDS011;59408;51.032;9.410;2022-09-09T05:37:53;5.23;;;1.50;;
71572;SDS011;59408;51.032;9.410;2022-09-09T05:40:21;6.57;;;1.60;;
71572;SDS011;59408;51.032;9.410;2022-09-09T05:42:47;6.47;;;1.75;;
71572;SDS011;59408;51.032;9.410;2022-09-09T05:45:14;5.45;;;1.40;;
71572;SDS011;59408;51.032;9.410;2022-09-09T05:47:41;4.63;;;1.50;;
71572;SDS011;59408;51.032;9.410;2022-09-09T05:50:07;6.13;;;1.40;;
71572;SDS011;59408;51.032;9.410;2022-09-09T05:52:34;5.72;;;1.40;;
71572;SDS011;59408;51.032;9.410;2022-09-09T05:55:01;4.40;;;1.52;;
71572;SDS011;59408;51.032;9.410;2022-09-09T05:57:29;5.15;;;1.40;;
71572;SDS011;59408;51.032;9.410;2022-09-09T05:59:55;6.72;;;1.40;;
71572;SDS011;59408;51.032;9.410;2022-09-09T06:02:22;4.50;;;1.37;;
71572;SDS011;59408;51.032;9.410;2022-09-09T06:04:48;7.40;;;1.63;;
71572;SDS011;59408;51.032;9.410;2022-09-09T06:07:15;5.35;;;1.50;;
71572;SDS011;59408;51.032;9.410;2022-09-09T06:09:42;5.47;;;1.50;;
71572;SDS011;59408;51.032;9.410;2022-09-09T06:12:08;6.80;;;2.00;;
71572;SDS011;59408;51.032;9.410;2022-09-09T06:14:36;5.85;;;1.40;;
71572;SDS011;59408;51.032;9.410;2022-09-09T06:17:03;4.73;;;1.40;;
71572;SDS011;59408;51.032;9.410;2022-09-09T06:19:30;7.33;;;1.87;;
71572;SDS011;59408;51.032;9.410;2022-09-09T06:21:56;5.43;;;1.60;;
71572;SDS011;59408;51.032;9.410;2022-09-09T06:24:23;5.30;;;1.48;;
71572;SDS011;59408;51.032;9.410;2022-09-09T06:26:50;6.45;;;1.48;;
71572;SDS011;59408;51.032;9.410;2022-09-09T06:29:16;5.05;;;1.48;;
71572;SDS011;59408;51.032;9.410;2022-09-09T06:31:44;4.27;;;1.43;;
71572;SDS011;59408;51.032;9.410;2022-09-09T06:34:11;6.85;;;1.50;;
71572;SDS011;59408;51.032;9.410;2022-09-09T06:36:38;7.25;;;1.50;;
71572;SDS011;59408;51.032;9.410;2022-09-09T06:39:05;9.20;;;1.60;;
71572;SDS011;59408;51.032;9.410;2022-09-09T06:41:38;6.20;;;1.60;;
71572;SDS011;59408;51.032;9.410;2022-09-09T06:44:05;6.60;;;1.50;;
71572;SDS011;59408;51.032;9.410;2022-09-09T06:46:32;6.97;;;1.40;;
71572;SDS011;59408;51.032;9.410;2022-09-09T06:49:00;6.05;;;1.48;;
71572;SDS011;59408;51.032;9.410;2022-09-09T06:51:27;5.30;;;1.58;;
71572;SDS011;59408;51.032;9.410;2022-09-09T06:53:56;4.43;;;1.65;;
71572;SDS011;59408;51.032;9.410;2022-09-09T06:56:24;4.75;;;1.40;;
71572;SDS011;59408;51.032;9.410;2022-09-09T06:58:52;5.27;;;1.50;;
71572;SDS011;59408;51.032;9.410;2022-09-09T07:01:20;5.20;;;1.50;;
71572;SDS011;59408;51.032;9.410;2022-09-09T07:03:48;4.65;;;1.52;;
71572;SDS011;59408;51.032;9.410;2022-09-09T07:06:18;5.95;;;1.30;;
71572;SDS011;59408;51.032;9.410;2022-09-09T07:08:49;6.55;;;1.98;;
71572;SDS011;59408;51.032;9.410;2022-09-09T07:11:23;4.47;;;1.27;;
71572;SDS011;59408;51.032;9.410;2022-09-09T07:13:50;4.70;;;1.47;;
71572;SDS011;59408;51.032;9.410;2022-09-09T07:16:18;5.60;;;1.42;;
71572;SDS011;59408;51.032;9.410;2022-09-09T07:18:46;5.68;;;1.60;;
71572;SDS011;59408;51.032;9.410;2022-09-09T07:21:13;3.88;;;1.42;;
71572;SDS011;59408;51.032;9.410;2022-09-09T07:23:42;5.63;;;1.63;;
71572;SDS011;59408;51.032;9.410;2022-09-09T07:26:09;5.00;;;1.60;;
71572;SDS011;59408;51.032;9.410;2022-09-09T07:28:37;6.97;;;1.63;;
71572;SDS011;59408;51.032;9.410;2022-09-09T07:31:04;5.80;;;1.73;;
71572;SDS011;59408;51.032;9.410;2022-09-09T07:33:32;6.03;;;2.03;;
71572;SDS011;59408;51.032;9.410;2022-09-09T07:36:04;6.60;;;2.25;;
71572;SDS011;59408;51.032;9.410;2022-09-09T07:38:32;5.97;;;1.90;;
71572;SDS011;59408;51.032;9.410;2022-09-09T07:41:05;5.20;;;2.17;;
71572;SDS011;59408;51.032;9.410;2022-09-09T07:43:33;6.88;;;2.17;;
71572;SDS011;59408;51.032;9.410;2022-09-09T07:46:00;5.63;;;2.17;;
71572;SDS011;59408;51.032;9.410;2022-09-09T07:48:26;5.32;;;1.90;;
71572;SDS011;59408;51.032;9.410;2022-09-09T07:51:02;8.07;;;2.17;;
71572;SDS011;59408;51.032;9.410;2022-09-09T07:53:29;6.83;;;2.00;;
71572;SDS011;59408;51.032;9.410;2022-09-09T07:56:01;7.73;;;2.33;;
71572;SDS011;59408;51.032;9.410;2022-09-09T07:58:30;6.10;;;1.95;;
71572;SDS011;59408;51.032;9.410;2022-09-09T08:01:07;6.00;;;1.90;;
71572;SDS011;59408;51.032;9.410;2022-09-09T08:03:35;4.93;;;1.70;;
71572;SDS011;59408;51.032;9.410;2022-09-09T08:06:02;7.60;;;2.67;;
71572;SDS011;59408;51.032;9.410;2022-09-09T08:08:29;8.80;;;2.20;;
71572;SDS011;59408;51.032;9.410;2022-09-09T08:11:05;4.87;;;1.77;;
71572;SDS011;59408;51.032;9.410;2022-09-09T08:13:36;5.05;;;1.80;;
71572;SDS011;59408;51.032;9.410;2022-09-09T08:16:04;5.60;;;1.88;;
71572;SDS011;59408;51.032;9.410;2022-09-09T08:18:32;6.28;;;1.90;;
71572;SDS011;59408;51.032;9.410;2022-09-09T08:21:04;6.80;;;2.00;;
71572;SDS011;59408;51.032;9.410;2022-09-09T08:23:31;5.73;;;1.90;;
71572;SDS011;59408;51.032;9.410;2022-09-09T08:26:02;5.80;;;1.67;;
71572;SDS011;59408;51.032;9.410;2022-09-09T08:28:29;7.25;;;1.75;;
71572;SDS011;59408;51.032;9.410;2022-09-09T08:31:04;6.25;;;2.10;;
71572;SDS011;59408;51.032;9.410;2022-09-09T08:33:31;5.25;;;2.03;;
71572;SDS011;59408;51.032;9.410;2022-09-09T08:35:58;4.78;;;1.50;;
71572;SDS011;59408;51.032;9.410;2022-09-09T08:38:25;5.30;;;1.70;;
71572;SDS011;59408;51.032;9.410;2022-09-09T08:40:51;5.77;;;1.20;;
71572;SDS011;59408;51.032;9.410;2022-09-09T08:43:24;5.50;;;1.75;;
71572;SDS011;59408;51.032;9.410;2022-09-09T08:45:54;5.85;;;1.40;;
71572;SDS011;59408;51.032;9.410;2022-09-09T08:48:36;4.75;;;1.30;;
71572;SDS011;59408;51.032;9.410;2022-09-09T08:51:11;4.70;;;1.42;;
71572;SDS011;59408;51.032;9.410;2022-09-09T08:53:41;5.57;;;1.70;;
71572;SDS011;59408;51.032;9.410;2022-09-09T08:56:11;5.97;;;1.93;;
71572;SDS011;59408;51.032;9.410;2022-09-09T08:58:42;4.80;;;1.55;;
71572;SDS011;59408;51.032;9.410;2022-09-09T09:01:31;6.93;;;1.80;;
71572;SDS011;59408;51.032;9.410;2022-09-09T09:04:14;6.80;;;1.73;;
71572;SDS011;59408;51.032;9.410;2022-09-09T09:06:54;6.95;;;1.77;;
71572;SDS011;59408;51.032;9.410;2022-09-09T09:09:31;7.47;;;1.50;;
71572;SDS011;59408;51.032;9.410;2022-09-09T09:12:11;7.07;;;1.77;;
71572;SDS011;59408;51.032;9.410;2022-09-09T09:14:42;6.45;;;1.40;;
71572;SDS011;59408;51.032;9.410;2022-09-09T09:17:12;7.80;;;2.08;;
71572;SDS011;59408;51.032;9.410;2022-09-09T09:19:42;6.07;;;1.60;;
71572;SDS011;59408;51.032;9.410;2022-09-09T09:22:13;6.50;;;1.80;;
71572;SDS011;59408;51.032;9.410;2022-09-09T09:24:45;5.43;;;1.70;;
71572;SDS011;59408;51.032;9.410;2022-09-09T09:27:18;6.07;;;1.50;;
71572;SDS011;59408;51.032;9.410;2022-09-09T09:29:52;7.13;;;1.70;;
71572;SDS011;59408;51.032;9.410;2022-09-09T09:32:53;4.90;;;1.42;;
71572;SDS011;59408;51.032;9.410;2022-09-09T09:35:23;7.47;;;1.90;;
71572;SDS011;59408;51.032;9.410;2022-09-09T09:37:50;4.93;;;1.50;;
71572;SDS011;59408;51.032;9.410;2022-09-09T09:40:36;6.67;;;1.90;;
71572;SDS011;59408;51.032;9.410;2022-09-09T09:43:16;6.30;;;1.38;;
71572;SDS011;59408;51.032;9.410;2022-09-09T09:45:49;7.30;;;1.75;;
71572;SDS011;59408;51.032;9.410;2022-09-09T09:48:36;5.15;;;1.70;;
71572;SDS011;59408;51.032;9.410;2022-09-09T09:51:06;6.35;;;1.90;;
71572;SDS011;59408;51.032;9.410;2022-09-09T09:53:36;6.93;;;1.87;;
71572;SDS011;59408;51.032;9.410;2022-09-09T09:56:05;5.53;;;1.30;;
71572;SDS011;59408;51.032;9.410;2022-09-09T09:58:37;5.80;;;1.50;;
71572;SDS011;59408;51.032;9.410;2022-09-09T10:01:18;4.57;;;1.30;;
71572;SDS011;59408;51.032;9.410;2022-09-09T10:03:50;6.38;;;1.30;;
71572;SDS011;59408;51.032;9.410;2022-09-09T10:06:28;5.32;;;1.70;;
71572;SDS011;59408;51.032;9.410;2022-09-09T10:08:55;5.90;;;1.30;;
71572;SDS011;59408;51.032;9.410;2022-09-09T10:11:25;5.50;;;1.60;;
71572;SDS011;59408;51.032;9.410;2022-09-09T10:14:04;4.82;;;1.45;;
71572;SDS011;59408;51.032;9.410;2022-09-09T10:16:41;5.05;;;1.90;;
71572;SDS011;59408;51.032;9.410;2022-09-09T10:19:30;6.50;;;1.80;;
71572;SDS011;59408;51.032;9.410;2022-09-09T10:22:04;8.70;;;1.77;;
71572;SDS011;59408;51.032;9.410;2022-09-09T10:24:50;4.70;;;1.67;;
71572;SDS011;59408;51.032;9.410;2022-09-09T10:27:40;9.23;;;1.73;;
71572;SDS011;59408;51.032;9.410;2022-09-09T10:30:24;6.90;;;1.70;;
71572;SDS011;59408;51.032;9.410;2022-09-09T10:33:02;5.32;;;2.10;;
71572;SDS011;59408;51.032;9.410;2022-09-09T10:35:41;6.35;;;1.92;;
71572;SDS011;59408;51.032;9.410;2022-09-09T10:38:17;6.43;;;1.90;;
71572;SDS011;59408;51.032;9.410;2022-09-09T10:40:50;6.00;;;1.80;;
71572;SDS011;59408;51.032;9.410;2022-09-09T10:43:33;4.87;;;1.70;;
71572;SDS011;59408;51.032;9.410;2022-09-09T10:46:13;5.97;;;1.90;;
71572;SDS011;59408;51.032;9.410;2022-09-09T10:48:54;6.15;;;1.80;;
71572;SDS011;59408;51.032;9.410;2022-09-09T10:51:33;5.82;;;1.90;;
71572;SDS011;59408;51.032;9.410;2022-09-09T10:56:58;6.90;;;2.10;;
71572;SDS011;59408;51.032;9.410;2022-09-09T10:59:30;5.18;;;1.60;;
71572;SDS011;59408;51.032;9.410;2022-09-09T11:02:02;6.50;;;2.20;;
71572;SDS011;59408;51.032;9.410;2022-09-09T11:04:40;5.43;;;1.70;;
71572;SDS011;59408;51.032;9.410;2022-09-09T11:07:13;6.35;;;1.85;;
71572;SDS011;59408;51.032;9.410;2022-09-09T11:09:52;6.10;;;1.53;;
71572;SDS011;59408;51.032;9.410;2022-09-09T11:12:26;7.60;;;1.65;;
71572;SDS011;59408;51.032;9.410;2022-09-09T11:14:57;6.10;;;1.80;;
71572;SDS011;59408;51.032;9.410;2022-09-09T11:17:30;5.63;;;1.77;;
71572;SDS011;59408;51.032;9.410;2022-09-09T11:20:04;5.28;;;1.70;;
71572;SDS011;59408;51.032;9.410;2022-09-09T11:22:32;5.03;;;1.53;;
71572;SDS011;59408;51.032;9.410;2022-09-09T11:25:04;5.43;;;1.65;;
71572;SDS011;59408;51.032;9.410;2022-09-09T11:27:37;6.95;;;1.80;;
71572;SDS011;59408;51.032;9.410;2022-09-09T11:30:18;5.80;;;1.92;;
71572;SDS011;59408;51.032;9.410;2022-09-09T11:33:19;4.75;;;1.50;;
71572;SDS011;59408;51.032;9.410;2022-09-09T11:36:13;4.80;;;1.70;;
71572;SDS011;59408;51.032;9.410;2022-09-09T11:38:56;4.20;;;1.50;;
71572;SDS011;59408;51.032;9.410;2022-09-09T11:41:33;7.10;;;1.60;;
71572;SDS011;59408;51.032;9.410;2022-09-09T11:44:09;5.55;;;1.58;;
71572;SDS011;59408;51.032;9.410;2022-09-09T11:46:37;5.13;;;1.48;;
71572;SDS011;59408;51.032;9.410;2022-09-09T11:49:06;5.57;;;1.40;;
71572;SDS011;59408;51.032;9.410;2022-09-09T11:51:52;4.97;;;1.60;;
71572;SDS011;59408;51.032;9.410;2022-09-09T11:54:26;6.23;;;1.20;;
71572;SDS011;59408;51.032;9.410;2022-09-09T11:56:56;4.93;;;1.67;;
71572;SDS011;59408;51.032;9.410;2022-09-09T11:59:24;5.85;;;1.60;;
71572;SDS011;59408;51.032;9.410;2022-09-09T12:01:54;4.03;;;1.30;;
71572;SDS011;59408;51.032;9.410;2022-09-09T12:04:28;4.40;;;1.60;;
71572;SDS011;59408;51.032;9.410;2022-09-09T12:07:01;5.83;;;1.47;;
71572;SDS011;59408;51.032;9.410;2022-09-09T12:09:40;5.38;;;1.40;;
71572;SDS011;59408;51.032;9.410;2022-09-09T12:12:26;5.70;;;1.45;;
71572;SDS011;59408;51.032;9.410;2022-09-09T12:14:55;3.47;;;1.20;;
71572;SDS011;59408;51.032;9.410;2022-09-09T12:17:25;7.03;;;1.40;;
71572;SDS011;59408;51.032;9.410;2022-09-09T12:19:59;4.07;;;1.20;;
71572;SDS011;59408;51.032;9.410;2022-09-09T12:22:29;4.00;;;1.20;;
71572;SDS011;59408;51.032;9.410;2022-09-09T12:25:08;5.80;;;1.67;;
71572;SDS011;59408;51.032;9.410;2022-09-09T12:27:53;3.95;;;1.17;;
71572;SDS011;59408;51.032;9.410;2022-09-09T12:30:28;4.63;;;1.27;;
71572;SDS011;59408;51.032;9.410;2022-09-09T12:33:01;6.17;;;1.00;;
71572;SDS011;59408;51.032;9.410;2022-09-09T12:35:33;6.57;;;1.30;;
71572;SDS011;59408;51.032;9.410;2022-09-09T12:38:01;4.93;;;1.30;;
71572;SDS011;59408;51.032;9.410;2022-09-09T12:40:31;4.63;;;1.13;;
71572;SDS011;59408;51.032;9.410;2022-09-09T12:43:00;4.03;;;1.40;;
71572;SDS011;59408;51.032;9.410;2022-09-09T12:45:28;4.50;;;1.27;;
71572;SDS011;59408;51.032;9.410;2022-09-09T12:47:58;4.87;;;1.30;;
71572;SDS011;59408;51.032;9.410;2022-09-09T12:50:29;3.88;;;1.30;;
71572;SDS011;59408;51.032;9.410;2022-09-09T12:52:57;4.53;;;1.23;;
71572;SDS011;59408;51.032;9.410;2022-09-09T12:55:27;3.88;;;1.15;;
71572;SDS011;59408;51.032;9.410;2022-09-09T12:57:54;4.63;;;1.20;;
71572;SDS011;59408;51.032;9.410;2022-09-09T13:00:24;4.03;;;1.30;;
71572;SDS011;59408;51.032;9.410;2022-09-09T13:02:52;4.97;;;1.08;;
71572;SDS011;59408;51.032;9.410;2022-09-09T13:05:21;3.40;;;1.08;;
71572;SDS011;59408;51.032;9.410;2022-09-09T13:07:49;4.15;;;0.90;;
71572;SDS011;59408;51.032;9.410;2022-09-09T13:10:19;3.55;;;1.05;;
71572;SDS011;59408;51.032;9.410;2022-09-09T13:13:12;4.30;;;1.00;;
71572;SDS011;59408;51.032;9.410;2022-09-09T13:15:47;3.50;;;0.90;;
71572;SDS011;59408;51.032;9.410;2022-09-09T13:18:15;4.13;;;1.00;;
71572;SDS011;59408;51.032;9.410;2022-09-09T13:20:45;5.50;;;1.10;;
71572;SDS011;59408;51.032;9.410;2022-09-09T13:23:13;3.92;;;1.38;;
71572;SDS011;59408;51.032;9.410;2022-09-09T13:25:41;3.80;;;1.20;;
71572;SDS011;59408;51.032;9.410;2022-09-09T13:28:20;4.40;;;1.30;;
71572;SDS011;59408;51.032;9.410;2022-09-09T13:30:56;5.88;;;1.10;;
71572;SDS011;59408;51.032;9.410;2022-09-09T13:33:29;4.85;;;1.20;;
71572;SDS011;59408;51.032;9.410;2022-09-09T13:35:57;4.90;;;0.90;;
71572;SDS011;59408;51.032;9.410;2022-09-09T13:38:25;3.33;;;1.08;;
71572;SDS011;59408;51.032;9.410;2022-09-09T13:40:56;4.40;;;1.53;;
71572;SDS011;59408;51.032;9.410;2022-09-09T13:43:24;4.55;;;1.27;;
71572;SDS011;59408;51.032;9.410;2022-09-09T13:45:53;4.63;;;1.52;;
71572;SDS011;59408;51.032;9.410;2022-09-09T13:48:22;7.22;;;1.42;;
71572;SDS011;59408;51.032;9.410;2022-09-09T13:51:02;5.13;;;1.20;;
71572;SDS011;59408;51.032;9.410;2022-09-09T13:53:30;4.40;;;1.27;;
71572;SDS011;59408;51.032;9.410;2022-09-09T13:55:57;4.38;;;1.40;;
71572;SDS011;59408;51.032;9.410;2022-09-09T13:58:24;3.95;;;1.25;;
71572;SDS011;59408;51.032;9.410;2022-09-09T14:00:51;4.85;;;1.40;;
71572;SDS011;59408;51.032;9.410;2022-09-09T14:03:20;3.85;;;1.08;;
71572;SDS011;59408;51.032;9.410;2022-09-09T14:05:47;4.57;;;1.37;;
71572;SDS011;59408;51.032;9.410;2022-09-09T14:08:20;4.38;;;1.25;;
71572;SDS011;59408;51.032;9.410;2022-09-09T14:10:49;4.53;;;1.40;;
71572;SDS011;59408;51.032;9.410;2022-09-09T14:13:16;5.03;;;1.30;;
71572;SDS011;59408;51.032;9.410;2022-09-09T14:15:42;4.03;;;1.08;;
71572;SDS011;59408;51.032;9.410;2022-09-09T14:18:09;3.87;;;1.17;;
71572;SDS011;59408;51.032;9.410;2022-09-09T14:20:39;3.38;;;1.08;;
71572;SDS011;59408;51.032;9.410;2022-09-09T14:23:05;4.80;;;1.20;;
71572;SDS011;59408;51.032;9.410;2022-09-09T14:25:35;4.18;;;1.08;;
71572;SDS011;59408;51.032;9.410;2022-09-09T14:28:02;3.60;;;1.20;;
71572;SDS011;59408;51.032;9.410;2022-09-09T14:30:28;4.73;;;1.50;;
71572;SDS011;59408;51.032;9.410;2022-09-09T14:32:55;4.53;;;1.38;;
71572;SDS011;59408;51.032;9.410;2022-09-09T14:35:22;4.75;;;1.20;;
71572;SDS011;59408;51.032;9.410;2022-09-09T14:37:49;5.78;;;1.50;;
71572;SDS011;59408;51.032;9.410;2022-09-09T14:40:16;3.47;;;1.00;;
71572;SDS011;59408;51.032;9.410;2022-09-09T14:42:43;6.27;;;1.40;;
71572;SDS011;59408;51.032;9.410;2022-09-09T14:45:10;4.50;;;1.42;;
71572;SDS011;59408;51.032;9.410;2022-09-09T14:47:37;5.53;;;1.20;;
71572;SDS011;59408;51.032;9.410;2022-09-09T14:50:04;5.07;;;1.23;;
71572;SDS011;59408;51.032;9.410;2022-09-09T14:52:31;4.22;;;1.20;;
71572;SDS011;59408;51.032;9.410;2022-09-09T14:54:59;3.87;;;1.10;;
71572;SDS011;59408;51.032;9.410;2022-09-09T14:57:26;5.00;;;1.30;;
71572;SDS011;59408;51.032;9.410;2022-09-09T14:59:53;4.28;;;1.25;;
71572;SDS011;59408;51.032;9.410;2022-09-09T15:02:19;5.68;;;1.42;;
71572;SDS011;59408;51.032;9.410;2022-09-09T15:04:46;4.72;;;1.20;;
71572;SDS011;59408;51.032;9.410;2022-09-09T15:07:12;7.00;;;1.50;;
71572;SDS011;59408;51.032;9.410;2022-09-09T15:09:39;4.55;;;1.42;;
71572;SDS011;59408;51.032;9.410;2022-09-09T15:12:07;4.63;;;1.30;;
71572;SDS011;59408;51.032;9.410;2022-09-09T15:14:34;5.60;;;1.20;;
71572;SDS011;59408;51.032;9.410;2022-09-09T15:17:00;4.47;;;1.13;;